Terminal Aerodrome Forecast
Issued by NWS

Home | Current Version | Previous Version | Text Only | Print | Product List | Glossary On
Versions: 1 2 3 4 5 6 7 8 9 10 11 12
000
FTUS44 KEPZ 241126
TAFDMN
TAF
KDMN 241126Z 2412/2512 28006KT P6SM FEW130
     FM242100 29008KT P6SM FEW110 SCT140
     FM250300 33007KT P6SM FEW140=

USA.gov is the U.S. government's official web portal to all federal, state and local government web resources and services.